Latest Weather Observations for Braidwood

IDN60901

Issued at 8:51 pm EST Tuesday 7 July 2015 (issued every 10 minutes, with the page automatically refreshed every 10 minutes)

About weather observations | Map of Canberra area stations | Latest observations for Canberra area | Other Formats
Station Details ID: 069132 Name: BRAIDWOOD RACECOURSE AWS Lat: -35.43 Lon: 149.78 Height: 665.2 m
Data from the previous 72 hours. | See also: Recent months at Braidwood
Date/Time
EST
Tmp

°C
App
Tmp
°C
Dew
Point
°C
Rel
Hum
%
Delta-T

°C
Wind Press
QNH
hPa
Press
MSL
hPa
Rain
since
9 am
mm
Dir
 
Spd
km/h
Gust
km/h
Spd
kts
Gust
kts
07/08:30pm 1.2 -0.7 0.5 95 0.3 CALM 0 0 0 0 1024.7 1025.9 0.4
07/08:00pm 1.5 -0.4 0.6 94 0.3 CALM 0 0 0 0 1024.5 1025.7 0.4
07/07:30pm 2.7 1.0 1.7 93 0.4 CALM 0 0 0 0 1024.3 1025.5 0.4
07/07:00pm 3.8 1.0 2.3 90 0.6 S 6 6 3 3 1024.0 1025.1 0.4
07/06:30pm 5.6 4.3 3.9 89 0.7 CALM 0 2 0 1 1023.8 1024.9 0.4
07/06:00pm 6.1 3.5 4.1 87 0.9 ESE 7 7 4 4 1023.4 1024.6 0.2
07/05:30pm 7.1 5.0 4.1 81 1.3 SSW 4 6 2 3 1023.1 1024.3 0.0
07/05:00pm 7.1 4.6 3.9 80 1.4 S 6 7 3 4 1022.7 1023.8 0.0
07/04:30pm 7.8 5.1 3.8 76 1.8 S 7 9 4 5 1022.3 1023.4 0.0
07/04:00pm 8.2 5.1 3.7 73 2.0 S 9 15 5 8 1021.9 1023.1 0.0
07/03:30pm 8.5 5.4 3.8 72 2.1 SSE 9 13 5 7 1021.6 1022.8 0.0
07/03:00pm 8.6 4.7 3.6 71 2.2 S 13 15 7 8 1021.3 1022.4 0.0
07/02:30pm 8.7 5.3 3.9 72 2.2 SSE 11 17 6 9 1021.2 1022.3 0.0
07/02:00pm 8.7 4.4 3.3 69 2.4 SSE 15 19 8 10 1021.0 1022.1 0.0
07/01:30pm 9.3 4.5 2.6 63 3.0 SSE 17 22 9 12 1020.9 1022.0 0.0
07/01:00pm 9.2 5.2 2.8 64 2.8 SE 13 19 7 10 1020.9 1022.0 0.0
07/12:30pm 9.1 5.2 3.3 67 2.6 SE 13 20 7 11 1021.0 1022.1 0.0
07/12:00pm 8.7 4.4 3.5 70 2.3 S 15 20 8 11 1021.0 1022.1 0.0
07/11:30am 8.6 3.9 3.2 69 2.4 SE 17 24 9 13 1021.0 1022.1 0.0
07/11:00am 7.5 2.9 3.6 76 1.7 S 17 20 9 11 1021.1 1022.2 0.0
07/10:30am 8.0 3.4 3.8 75 1.9 SSE 17 22 9 12 1021.1 1022.2 0.0
07/10:00am 7.9 3.5 4.5 79 1.5 S 17 22 9 12 1021.0 1022.1 0.0
07/09:30am 7.0 4.5 4.7 85 1.0 SE 7 11 4 6 1020.6 1021.7 0.0
07/09:00am 4.8 2.7 3.8 93 0.4 SSE 4 6 2 3 1020.4 1021.6 0.0
07/08:30am 2.9 1.2 2.0 94 0.4 CALM 0 0 0 0 1020.1 1021.2 0.0
07/08:00am 2.0 0.2 1.3 95 0.3 CALM 0 0 0 0 1019.8 1020.9 0.0
07/07:30am 1.1 -0.9 0.2 94 0.3 CALM 0 0 0 0 1019.6 1020.7 0.0
07/07:00am 0.4 -2.0 -0.6 93 0.4 SE 2 4 1 2 1019.2 1020.3 0.0
07/06:30am 1.5 -0.7 0.8 95 0.3 N 2 4 1 2 1018.5 1019.6 0.0
07/06:00am 0.7 -1.3 0.0 95 0.3 CALM 0 0 0 0 1018.0 1019.1 0.0
07/05:30am 0.2 -2.2 -0.5 95 0.3 SSE 2 7 1 4 1017.8 1018.9 0.0
07/05:00am 0.4 -2.4 -0.3 95 0.3 N 4 6 2 3 1017.5 1018.5 0.0
07/04:30am 0.1 -3.1 -0.7 94 0.3 N 6 6 3 3 1017.2 1018.3 0.0
07/04:00am 0.5 -1.9 -0.2 95 0.3 NNW 2 6 1 3 1017.0 1018.1 0.0
07/03:30am 0.2 -3.0 -0.5 95 0.3 N 6 9 3 5 1016.9 1018.0 0.0
07/03:00am -0.1 -2.6 -1.2 92 0.4 N 2 4 1 2 1016.7 1017.8 0.0
07/02:30am 0.4 -2.5 -0.9 91 0.5 NNW 4 7 2 4 1016.7 1017.8 0.0
07/02:00am 1.1 -1.7 -0.7 88 0.7 NNW 4 6 2 3 1016.7 1017.8 0.0
07/01:30am 2.7 -1.0 0.1 83 1.0 WNW 9 15 5 8 1016.4 1017.4 0.0
07/01:00am 1.1 -2.1 -0.4 90 0.6 NW 6 7 3 4 1016.2 1017.2 0.0
07/12:30am 2.1 -1.5 0.3 88 0.7 NW 9 13 5 7 1016.1 1017.1 0.0
07/12:00am 2.2 -0.8 0.9 91 0.5 NNW 6 11 3 6 1016.2 1017.2 0.0
 
Date/Time
EST
Tmp

°C
App
Tmp
°C
Dew
Point
°C
Rel
Hum
%
Delta-T

°C
Wind Press
QNH
hPa
Press
MSL
hPa
Rain
since
9 am
mm
Dir
 
Spd
km/h
Gust
km/h
Spd
kts
Gust
kts
06/11:30pm 2.7 -1.2 1.2 90 0.6 NW 11 17 6 9 1016.1 1017.1 0.0
06/11:00pm 1.2 -0.8 -0.1 91 0.5 CALM 0 2 0 1 1016.1 1017.1 0.0
06/10:30pm 1.6 -1.7 0.0 89 0.6 N 7 9 4 5 1016.2 1017.2 0.0
06/10:00pm 2.6 -0.4 0.7 87 0.7 NNE 6 7 3 4 1016.1 1017.1 0.0
06/09:30pm 2.3 -0.9 -0.6 81 1.1 NW 6 9 3 5 1016.1 1017.1 0.0
06/09:00pm 2.7 -0.5 -0.4 80 1.2 NW 6 9 3 5 1016.1 1017.1 0.0
06/08:30pm 4.8 0.5 0.8 75 1.6 WNW 13 22 7 12 1016.1 1017.1 0.0
06/08:00pm 5.7 1.1 1.4 74 1.8 W 15 20 8 11 1015.9 1016.9 0.0
06/07:30pm 3.9 0.8 0.4 78 1.4 NW 6 7 3 4 1015.6 1016.7 0.0
06/07:00pm 4.7 1.5 0.5 74 1.7 NW 7 11 4 6 1015.4 1016.5 0.0
06/06:30pm 4.9 1.9 0.7 74 1.7 NW 6 9 3 5 1015.3 1016.4 0.0
06/06:00pm 5.5 2.3 0.9 72 1.9 NW 7 11 4 6 1015.0 1016.0 0.0
06/05:30pm 6.8 3.3 1.5 69 2.2 NW 9 17 5 9 1014.6 1015.6 0.0
06/05:00pm 7.7 4.9 2.0 67 2.4 NW 6 9 3 5 1014.3 1015.3 0.0
06/04:30pm 8.6 4.0 1.7 62 3.0 W 15 19 8 10 1013.9 1015.0 0.0
06/04:00pm 8.9 4.0 2.0 62 3.0 W 17 22 9 12 1013.8 1014.8 0.0
06/03:30pm 10.1 6.0 2.0 57 3.6 WNW 13 19 7 10 1013.5 1014.5 0.0
06/03:00pm 10.9 6.0 2.2 55 3.9 W 17 22 9 12 1013.4 1014.4 0.0
06/02:30pm 11.4 8.6 1.9 52 4.2 NNW 6 15 3 8 1013.2 1014.2 0.0
06/02:00pm 11.5 8.6 1.5 50 4.4 NW 6 13 3 7 1013.1 1014.1 0.0
06/01:30pm 11.1 8.0 1.1 50 4.3 N 7 11 4 6 1013.0 1014.0 0.0
06/01:00pm 10.6 8.3 0.6 50 4.3 W 2 11 1 6 1013.3 1014.3 0.0
06/12:30pm 10.0 6.9 0.1 50 4.2 WNW 6 7 3 4 1013.7 1014.7 0.0
06/12:00pm 9.3 6.2 0.2 53 3.8 W 6 9 3 5 1014.2 1015.2 0.0
06/11:30am 9.2 6.3 1.6 59 3.3 NNW 6 9 3 5 1014.7 1015.7 0.0
06/11:00am 7.3 4.1 0.7 63 2.7 WNW 7 11 4 6 1015.1 1016.1 0.0
06/10:30am 6.8 3.3 1.3 68 2.3 WNW 9 17 5 9 1015.3 1016.4 0.0
06/10:00am 5.9 3.1 2.2 77 1.6 NW 6 9 3 5 1015.5 1016.6 0.0
06/09:30am 4.8 1.1 2.2 83 1.1 WNW 11 17 6 9 1015.8 1016.8 0.0
06/09:00am 3.8 1.5 2.5 91 0.5 NW 4 9 2 5 1015.6 1016.7 0.2
06/08:30am 1.9 -0.3 1.3 96 0.2 NW 2 6 1 3 1015.8 1016.8 0.0
06/08:00am 1.4 -1.8 1.0 97 0.2 NW 7 13 4 7 1015.5 1016.6 0.0
06/07:30am -0.3 -3.5 -0.7 97 0.1 NNW 6 9 3 5 1015.4 1016.5 0.0
06/07:00am 1.1 -1.5 0.7 97 0.2 NNE 4 7 2 4 1015.3 1016.4 0.0
06/06:30am 0.3 -2.5 -0.1 97 0.2 NNW 4 7 2 4 1015.3 1016.4 0.0
06/06:00am 0.6 -2.7 0.2 97 0.2 NW 7 11 4 6 1015.3 1016.4 0.0
06/05:30am -0.1 -3.3 -0.5 97 0.1 NW 6 9 3 5 1015.4 1016.5 0.0
06/05:00am -0.3 -3.5 -0.7 97 0.1 NW 6 7 3 4 1015.5 1016.6 0.0
06/04:30am -0.3 -3.1 -0.7 97 0.1 NNW 4 7 2 4 1015.6 1016.7 0.0
06/04:00am 0.4 -2.3 0.0 97 0.2 N 4 9 2 5 1015.6 1016.7 0.0
06/03:30am 0.5 -2.6 0.1 97 0.2 NNW 6 9 3 5 1015.8 1016.8 0.0
06/03:00am 1.1 -2.1 0.7 97 0.2 NNW 7 13 4 7 1016.1 1017.1 0.0
06/02:30am 0.8 -2.8 0.4 97 0.2 N 9 15 5 8 1016.3 1017.3 0.0
06/02:00am -0.2 -2.3 -0.6 97 0.1 CALM 0 0 0 0 1016.7 1017.8 0.0
06/01:30am 0.2 -2.6 -0.2 97 0.1 NNW 4 6 2 3 1016.8 1017.9 0.0
06/01:00am -0.2 -3.0 -0.6 97 0.1 NNW 4 6 2 3 1017.1 1018.2 0.0
06/12:30am 0.1 -1.9 -0.3 97 0.2 CALM 0 4 0 2 1017.4 1018.4 0.0
06/12:00am -0.1 -2.5 -0.5 97 0.1 N 2 4 1 2 1017.6 1018.6 0.0
 
Date/Time
EST
Tmp

°C
App
Tmp
°C
Dew
Point
°C
Rel
Hum
%
Delta-T

°C
Wind Press
QNH
hPa
Press
MSL
hPa
Rain
since
9 am
mm
Dir
 
Spd
km/h
Gust
km/h
Spd
kts
Gust
kts
05/11:30pm -0.3 -3.2 -0.9 96 0.2 NNW 4 6 2 3 1017.8 1018.9 0.0
05/11:00pm 0.7 -2.0 0.1 96 0.2 NW 4 6 2 3 1017.8 1018.9 0.0
05/10:30pm 0.5 -2.3 -0.2 95 0.3 NNW 4 7 2 4 1017.8 1018.9 0.0
05/10:00pm 1.0 -2.1 0.3 95 0.3 NNW 6 9 3 5 1017.8 1018.9 0.0
05/09:30pm 0.5 -2.7 -0.5 93 0.4 N 6 7 3 4 1018.0 1019.1 0.0
05/09:00pm 1.7 -0.5 0.8 94 0.4 N 2 2 1 1 1018.1 1019.2 0.0
05/08:30pm 1.8 -0.1 0.8 93 0.4 CALM 0 2 0 1 1018.3 1019.4 0.0
05/08:00pm 2.1 -0.5 1.1 93 0.4 NNW 4 6 2 3 1018.1 1019.2 0.0
05/07:30pm 2.0 -0.6 0.7 91 0.5 N 4 6 2 3 1018.2 1019.3 0.0
05/07:00pm 2.0 -0.3 0.2 88 0.7 N 2 6 1 3 1018.0 1019.1 0.0
05/06:30pm 2.6 -0.4 0.5 86 0.8 N 6 7 3 4 1017.8 1018.9 0.0
05/06:00pm 3.4 0.4 0.8 83 1.0 NNW 6 11 3 6 1017.9 1019.0 0.0
05/05:30pm 4.5 1.6 1.2 79 1.3 NNW 6 9 3 5 1017.6 1018.6 0.0
05/05:00pm 6.2 3.8 1.9 74 1.8 NNW 4 9 2 5 1017.4 1018.4 0.0
05/04:30pm 8.1 5.7 1.9 65 2.7 N 4 7 2 4 1017.2 1018.3 0.0
05/04:00pm 9.8 7.9 2.6 61 3.2 NNW 2 7 1 4 1017.2 1018.3 0.0
05/03:30pm 10.7 7.9 3.3 60 3.4 NNW 7 15 4 8 1017.0 1018.1 0.0
05/03:00pm 9.5 6.1 2.1 60 3.2 NNW 9 17 5 9 1017.0 1018.1 0.0
05/02:30pm 12.0 8.4 2.7 53 4.2 NNW 11 17 6 9 1017.1 1018.2 0.0
05/02:00pm 12.7 9.6 3.6 54 4.2 NNW 9 19 5 10 1017.2 1018.3 0.0
05/01:30pm 11.7 8.5 3.0 55 4.0 NNW 9 20 5 11 1017.6 1018.6 0.0
05/01:00pm 11.9 8.6 2.6 53 4.2 NNW 9 17 5 9 1017.8 1018.9 0.0
05/12:30pm 11.4 8.1 2.7 55 3.9 NNW 9 17 5 9 1018.2 1019.3 0.0
05/12:00pm 11.5 8.6 2.5 54 4.0 N 7 13 4 7 1018.8 1019.9 0.0
05/11:30am 10.3 7.5 3.3 62 3.2 NNE 7 15 4 8 1019.6 1020.7 0.0
05/11:00am 8.3 6.1 3.2 70 2.3 NNE 4 9 2 5 1020.4 1021.6 0.0
05/10:30am 5.8 3.4 1.9 76 1.6 N 4 7 2 4 1020.8 1021.9 0.0
05/10:00am 4.4 1.9 1.6 82 1.1 N 4 6 2 3 1021.1 1022.2 0.0
05/09:30am 2.9 1.1 1.4 90 0.6 CALM 0 0 0 0 1021.2 1022.3 0.0
05/09:00am -0.7 -2.9 -1.3 96 0.2 CALM 0 0 0 0 1021.3 1022.4 0.2
05/08:30am -1.8 -4.1 -2.2 97 0.1 CALM 0 0 0 0 1021.3 1022.4 0.2
05/08:00am -2.9 -5.3 -3.3 97 0.0 CALM 0 0 0 0 1021.4 1022.5 0.2
05/07:30am -4.7 -7.3 -5.1 97 -0.1 CALM 0 0 0 0 1021.4 1022.5 0.2
05/07:00am -3.8 -6.3 -4.2 97 0.0 CALM 0 0 0 0 1021.1 1022.2 0.2
05/06:30am -4.3 -6.9 -4.8 96 0.0 CALM 0 0 0 0 1020.9 1022.0 0.2
05/06:00am -4.2 -6.8 -4.7 96 0.0 CALM 0 0 0 0 1020.6 1021.7 0.2
05/05:30am -3.7 -6.2 -4.2 96 0.0 CALM 0 0 0 0 1020.3 1021.5 0.2
05/05:00am -3.1 -5.6 -3.6 96 0.0 CALM 0 0 0 0 1020.2 1021.3 0.2
05/04:30am -3.8 -6.4 -4.5 95 0.1 CALM 0 0 0 0 1020.4 1021.6 0.2
05/04:00am -3.7 -6.2 -4.4 95 0.1 CALM 0 0 0 0 1020.6 1021.7 0.2
05/03:30am -3.6 -6.1 -4.4 94 0.1 CALM 0 0 0 0 1020.7 1021.8 0.2
05/03:00am -1.9 -4.2 -2.5 96 0.1 CALM 0 0 0 0 1020.8 1021.9 0.2
05/02:30am -2.8 -5.2 -3.5 95 0.1 CALM 0 0 0 0 1020.9 1022.0 0.2
05/02:00am -2.3 -4.6 -2.7 97 0.0 CALM 0 0 0 0 1021.0 1022.1 0.2
05/01:30am -2.2 -4.5 -2.6 97 0.0 CALM 0 0 0 0 1021.1 1022.2 0.2
05/01:00am -2.6 -5.0 -3.1 96 0.1 CALM 0 0 0 0 1021.1 1022.2 0.2
05/12:30am -2.5 -5.3 -3.0 96 0.1 S 2 4 1 2 1021.1 1022.2 0.2
05/12:00am -2.6 -5.8 -3.3 95 0.1 S 4 6 2 3 1021.3 1022.4 0.2
 
Date/Time
EST
Tmp

°C
App
Tmp
°C
Dew
Point
°C
Rel
Hum
%
Delta-T

°C
Wind Press
QNH
hPa
Press
MSL
hPa
Rain
since
9 am
mm
Dir
 
Spd
km/h
Gust
km/h
Spd
kts
Gust
kts
04/11:30pm -2.4 -4.8 -3.1 95 0.1 CALM 0 0 0 0 1021.5 1022.6 0.2
04/11:00pm -1.9 -4.2 -2.6 95 0.2 CALM 0 0 0 0 1021.6 1022.8 0.2
04/10:30pm -2.3 -4.7 -3.4 92 0.3 CALM 0 0 0 0 1021.6 1022.8 0.2
04/10:00pm -0.7 -3.3 -1.7 93 0.3 NE 2 4 1 2 1021.5 1022.6 0.2
04/09:30pm 0.0 -2.5 -0.8 94 0.3 NNE 2 4 1 2 1021.5 1022.6 0.2
04/09:00pm -0.4 -3.0 -1.5 92 0.4 N 2 6 1 3 1021.5 1022.6 0.2

Latest Capital City Observations: Canberra | Sydney | Melbourne | Brisbane | Adelaide | Perth | Hobart | Darwin

Other Formats:

Comma delimited format used in spreadsheet applications
http://www.bom.gov.au/fwo/IDN60903/IDN60903.94927.axf

JavaScript Object Notation format (JSON) in row-major order
http://www.bom.gov.au/fwo/IDN60903/IDN60903.94927.json